Bookmark and Share
Track history (hours):
 

Callsign AMOUK20 (name unknown)

Last reported at 2014-Apr-23 13:00 UTC. Time now 2014-Apr-23 15:26 UTC.
Position S 00°24' W 081°12'.

Barometer 1011.9 mb
Air temperature 23.4 ° C

NotesDate/timePositionNaut miles runAvg speedWind from/ knotsBaromVisibWave heightAir tempDewpointWater temp
2014-Apr-23 13:00S 00°24' W 081°12'6 6.0 1011.9 23.4
2014-Apr-23 12:00S 00°30' W 081°12'1313.4 1011.2 23.3
2014-Apr-23 11:00S 00°42' W 081°18'6 6.0 1010.0 23.3
2014-Apr-23 10:00S 00°48' W 081°18'1212.0 1010.1 23.1
2014-Apr-23 09:00S 01°00' W 081°18'8 8.5 1010.6 23.1
2014-Apr-23 08:00S 01°06' W 081°24'18 9.0 1011.1 23.4
2014-Apr-23 06:00S 01°24' W 081°24'6 6.0 1012.1 23.5
2014-Apr-23 05:00S 01°30' W 081°24'1212.0 1012.1 23.3
2014-Apr-23 04:00S 01°42' W 081°24'6 6.0 1011.8 23.4
2014-Apr-23 03:00S 01°48' W 081°24'19 9.5 1011.2 23.3
2014-Apr-23 01:00S 02°06' W 081°30'6 6.0 1009.4 23.3
2014-Apr-23 00:00S 02°12' W 081°30'6 6.0 1008.8 23.3
2014-Apr-22 23:00S 02°18' W 081°30'1212.0 1008.0 23.7
2014-Apr-22 22:00S 02°30' W 081°30'6 6.0 1007.9 23.5
2014-Apr-22 21:00S 02°36' W 081°30'6 6.0 1008.0 23.6
2014-Apr-22 20:00S 02°42' W 081°30'1212.0 1008.5 24.0
2014-Apr-22 19:00S 02°54' W 081°30'6 6.0 1009.7 24.4
2014-Apr-22 18:00S 03°00' W 081°30'19 9.5 1010.9 24.0
2014-Apr-22 16:00S 03°18' W 081°36'6 6.0 1012.5 24.2
2014-Apr-22 15:00S 03°24' W 081°36'12 6.0 1012.8 23.7
2014-Apr-22 13:00S 03°36' W 081°36'1212.0 1011.6 23.1
2014-Apr-22 12:00S 03°48' W 081°36'6 6.0 1010.9 23.6
2014-Apr-22 11:00S 03°54' W 081°36'6 6.0 1010.3 23.5
2014-Apr-22 10:00S 04°00' W 081°36'6 6.0 1010.0 23.0
2014-Apr-22 09:00S 04°06' W 081°36'6 6.0 1009.9 22.9
2014-Apr-22 08:00S 04°12' W 081°36'18 9.0 1010.4 22.7
2014-Apr-22 06:00S 04°30' W 081°36'6 6.0 1011.2 22.3
2014-Apr-22 05:00S 04°36' W 081°36'12 6.0 1012.2 22.2
2014-Apr-22 03:00S 04°48' W 081°36'6 6.0 1011.6 22.2
2014-Apr-22 02:00S 04°54' W 081°36'1212.0 1010.9 22.4
2014-Apr-22 01:00S 05°06' W 081°36'6 6.0 1010.5 22.3
2014-Apr-22 00:00S 05°12' W 081°36'6 6.0 1009.7 22.6
2014-Apr-21 23:00S 05°18' W 081°36'6 6.0 1009.4 23.1
2014-Apr-21 22:00S 05°24' W 081°36'1212.0 1008.7 23.7
2014-Apr-21 21:00S 05°36' W 081°36'6 6.0 1009.3 24.1
2014-Apr-21 20:00S 05°42' W 081°36'12 6.0 1009.7 23.4
2014-Apr-21 18:00S 05°54' W 081°36'6 6.0 1011.9 24.2
2014-Apr-21 17:00S 06°00' W 081°36'1212.0 1013.0 23.3
2014-Apr-21 16:00S 06°12' W 081°36'1212.0 1013.6 23.3
2014-Apr-21 15:00S 06°24' W 081°36'8 8.5 1013.6 22.9
2014-Apr-21 14:00S 06°30' W 081°30'1212.0 1013.7 22.5
2014-Apr-21 13:00S 06°42' W 081°30'1212.0 1013.3 21.9
2014-Apr-21 12:00S 06°54' W 081°30'6 6.0 1013.0 21.6
2014-Apr-21 11:00S 07°00' W 081°30'1313.4 1012.8 21.6
2014-Apr-21 10:00S 07°12' W 081°24'6 6.0 1012.6 21.6
2014-Apr-21 09:00S 07°18' W 081°24'1212.0 1012.5 21.6
2014-Apr-21 08:00S 07°30' W 081°24'1212.0 1012.4 21.6
2014-Apr-21 07:00S 07°42' W 081°24'8 8.4 1012.9 21.8
2014-Apr-21 06:00S 07°48' W 081°18'1212.0 1013.5 21.9
2014-Apr-21 05:00S 08°00' W 081°18'2412.0 1013.6 22.1
2014-Apr-21 03:00S 08°24' W 081°18'8 8.4 1013.2 22.8
2014-Apr-21 02:00S 08°30' W 081°12'1212.0 1013.0 23.3
2014-Apr-21 01:00S 08°42' W 081°12'1212.0 1012.5 23.3
2014-Apr-21 00:00S 08°54' W 081°12'1212.0 1011.3 23.6
2014-Apr-20 23:00S 09°06' W 081°12'8 8.4 1011.0 24.2
2014-Apr-20 22:00S 09°12' W 081°06'1212.0 1010.6 24.8
2014-Apr-20 21:00S 09°24' W 081°06'1212.0 1010.5 24.9
2014-Apr-20 20:00S 09°36' W 081°06'1313.4 1011.2 24.8
2014-Apr-20 19:00S 09°48' W 081°00'6 6.0 1011.8 24.3
2014-Apr-20 18:00S 09°54' W 081°00'1212.0 1012.6 24.3
2014-Apr-20 17:00S 10°06' W 081°00'1212.0 1013.8 24.3
2014-Apr-20 16:00S 10°18' W 081°00'8 8.4 1014.1 23.9
2014-Apr-20 15:00S 10°24' W 080°54'1212.0 1014.8 22.7
2014-Apr-20 14:00S 10°36' W 080°54'1212.0 1014.5 22.3
2014-Apr-20 13:00S 10°48' W 080°54'1212.0 1014.1 23.0
2014-Apr-20 12:00S 11°00' W 080°54'8 8.4 1013.5 23.0
2014-Apr-20 11:00S 11°06' W 080°48'1212.0 1012.8 22.8
2014-Apr-20 10:00S 11°18' W 080°48'3612.2 1012.3 22.6
2014-Apr-20 07:00S 11°54' W 080°42'3612.2 1012.3 22.4
2014-Apr-20 04:00S 12°30' W 080°36'1212.0 1013.0 22.5
2014-Apr-20 03:00S 12°42' W 080°36'1212.0 1013.0 22.2
2014-Apr-20 02:00S 12°54' W 080°36'1313.3 1012.8 22.2
2014-Apr-20 01:00S 13°06' W 080°30'1212.0 1012.6 22.3
2014-Apr-20 00:00S 13°18' W 080°30'1212.0 1012.1 22.2
2014-Apr-19 23:00S 13°30' W 080°30'1313.3 1011.5 22.5
2014-Apr-19 22:00S 13°42' W 080°24'1212.0 1011.0 24.0
2014-Apr-19 21:00S 13°54' W 080°24'1212.0 1011.1 23.5
2014-Apr-19 20:00S 14°06' W 080°24'1313.3 1011.1 24.2
2014-Apr-19 19:00S 14°18' W 080°18'1212.0 1012.0 24.2
2014-Apr-19 18:00S 14°30' W 080°18'1212.0 1012.8 23.8
2014-Apr-19 17:00S 14°42' W 080°18'8 8.3 1013.6 22.9
2014-Apr-19 16:00S 14°48' W 080°12'6 6.0 1014.3 22.1
2014-Apr-19 15:00S 14°54' W 080°12'1212.0 1014.1 21.4
2014-Apr-19 14:00S 15°06' W 080°12'1212.0 1014.0 21.4
2014-Apr-19 13:00S 15°18' W 080°12'1313.3 1013.3 21.1
2014-Apr-19 12:00S 15°30' W 080°06'2412.0 1012.8 20.8
2014-Apr-19 10:00S 15°54' W 080°06'1212.0 1011.9 20.8
2014-Apr-19 09:00S 16°06' W 080°06'2512.3 1012.0 20.8
2014-Apr-19 07:00S 16°30' W 080°00'1212.0 1013.1 20.9
2014-Apr-19 06:00S 16°42' W 080°00'1313.3 1013.9 20.7
2014-Apr-19 05:00S 16°54' W 079°54'1212.0 1014.1 20.7
2014-Apr-19 04:00S 17°06' W 079°54'1212.0 1014.3 20.6
2014-Apr-19 03:00S 17°18' W 079°54'1313.3 1014.2 20.4
2014-Apr-19 02:00S 17°30' W 079°48'1212.0 1014.2 20.4
2014-Apr-19 01:00S 17°42' W 079°48'1212.0 1013.6 20.4
2014-Apr-19 00:00S 17°54' W 079°48'1313.3 1013.1 20.2
2014-Apr-18 23:00S 18°06' W 079°42'1212.0 1012.8 20.3
2014-Apr-18 22:00S 18°18' W 079°42'2512.3 1012.6 20.4
2014-Apr-18 20:00S 18°42' W 079°36'8 8.3 1013.0 19.9
2014-Apr-18 19:00S 18°36' W 079°30'1313.3 1013.5 19.6
2014-Apr-18 18:00S 18°48' W 079°24'1212.0 1014.5 21.1
2014-Apr-18 17:00S 19°00' W 079°24'1212.0 1015.5 20.3
2014-Apr-18 16:00S 19°12' W 079°24'1313.3 1015.6 20.0
2014-Apr-18 15:00S 19°24' W 079°18'2512.3 1015.7 19.8
2014-Apr-18 13:00S 19°48' W 079°12'1212.0 1015.4 19.4
2014-Apr-18 12:00S 20°00' W 079°12'1212.0 1014.9 19.2
2014-Apr-18 11:00S 20°12' W 079°12'1313.3 1014.6 19.3
2014-Apr-18 10:00S 20°24' W 079°06'1212.0 1014.8 19.0
2014-Apr-18 09:00S 20°36' W 079°06'2512.3 1015.0 19.0
2014-Apr-18 07:00S 21°00' W 079°00'1212.0 1016.3 19.2
2014-Apr-18 06:00S 21°12' W 079°00'1313.2 1017.1 19.0
2014-Apr-18 05:00S 21°24' W 078°54'1212.0 1017.7 19.1
2014-Apr-18 04:00S 21°36' W 078°54'1212.0 1018.1 19.2
2014-Apr-18 03:00S 21°48' W 078°54'2512.3 1018.1 19.2
2014-Apr-18 01:00S 22°12' W 078°48'1212.0 1017.5 19.2
2014-Apr-18 00:00S 22°24' W 078°48'1313.2 1016.7 19.2
2014-Apr-17 23:00S 22°36' W 078°42'1212.0 1016.2 19.2
2014-Apr-17 22:00S 22°48' W 078°42'1313.2 1016.4 19.5
2014-Apr-17 21:00S 23°00' W 078°36'1212.0 1016.5 19.9
2014-Apr-17 20:00S 23°12' W 078°36'1212.0 1016.8 20.2
2014-Apr-17 19:00S 23°24' W 078°36'2512.3 1017.8 20.3
2014-Apr-17 17:00S 23°48' W 078°30'3612.1 1019.2 20.0
2014-Apr-17 14:00S 24°24' W 078°24'1313.2 1019.4 18.7
2014-Apr-17 13:00S 24°36' W 078°18'6 6.0 1018.7 18.3
2014-Apr-17 12:00S 24°42' W 078°18'1212.0 1018.8 18.3
2014-Apr-17 11:00S 24°54' W 078°18'1313.2 1018.5 18.2
2014-Apr-17 10:00S 25°06' W 078°12'1212.0 1018.5 18.1
2014-Apr-17 09:00S 25°18' W 078°12'1313.2 1018.5 18.2
2014-Apr-17 08:00S 25°30' W 078°06'1212.0 1018.9 18.0
2014-Apr-17 07:00S 25°42' W 078°06'1212.0 1019.4 18.0
2014-Apr-17 06:00S 25°54' W 078°06'1313.2 1019.8 17.8
2014-Apr-17 05:00S 26°06' W 078°00'1212.0 1019.6 17.8
2014-Apr-17 04:00S 26°18' W 078°00'1313.1 1019.9 17.9
2014-Apr-17 03:00S 26°30' W 077°54'3015.2 1019.7 17.9
2014-Apr-17 01:00S 27°00' W 077°48'1212.0 1020.1 17.9
2014-Apr-17 00:00S 27°12' W 077°48'2512.3 1019.6 18.0
2014-Apr-16 22:00S 27°36' W 077°42'6 6.0 1019.4 18.7
2014-Apr-16 21:00S 27°42' W 077°42'1313.1 1019.2 19.4
2014-Apr-16 20:00S 27°54' W 077°36'1212.0 1019.6 18.2
2014-Apr-16 19:00S 28°06' W 077°36'1212.0 1020.4 19.9
2014-Apr-16 18:00S 28°18' W 077°36'8 8.0 1021.3 18.8
2014-Apr-16 17:00S 28°24' W 077°30'6 6.0 1021.3 18.7
2014-Apr-16 16:00S 28°30' W 077°30'1212.0 1021.4 18.7
2014-Apr-16 15:00S 28°42' W 077°30'3010.2 1021.3 18.4
2014-Apr-16 12:00S 29°12' W 077°24'1918.7 1020.0 17.414.2
2014-Apr-16 11:00S 29°30' W 077°18'1212.0 1019.4 17.414.7
2014-Apr-16 10:00S 29°42' W 077°18'1313.1 1019.4 17.615.9
2014-Apr-16 09:00S 29°54' W 077°12'3015.2 1019.2 17.514.4
2014-Apr-16 07:00S 30°24' W 077°06'1212.0 1019.3 17.214.5
2014-Apr-16 06:00S 30°36' W 077°06'4314.4 1019.5 17.615.2
2014-Apr-16 03:00S 31°18' W 076°54'1212.0 1019.8 17.716.2
2014-Apr-16 02:00S 31°30' W 076°54'1313.0 1019.4 17.717.6
2014-Apr-16 01:00S 31°42' W 076°48'1818.0 1019.0 17.317.2
2014-Apr-16 00:00S 32°00' W 076°48'1313.0 1018.6 17.417.3
2014-Apr-15 23:00S 32°12' W 076°42'1212.0 1018.0 17.117.0
2014-Apr-15 22:00S 32°24' W 076°42'1313.0 1017.9 17.217.1
2014-Apr-15 21:00S 32°36' W 076°36'1918.7 1017.7 17.417.3
2014-Apr-15 20:00S 32°54' W 076°30'1212.0 1017.7 17.317.2
2014-Apr-15 19:00S 33°06' W 076°30'1313.0 1017.7 17.117.0
2014-Apr-15 18:00S 33°18' W 076°24'1212.0 1018.0 16.816.7
2014-Apr-15 17:00S 33°30' W 076°24'1313.0 1018.1 16.816.7
2014-Apr-15 16:00S 33°42' W 076°18'1212.0 1018.5 16.616.5
2014-Apr-15 15:00S 33°54' W 076°18'1918.7 1018.1 16.616.5
2014-Apr-15 14:00S 34°12' W 076°12'1212.0 1018.1 16.716.6
2014-Apr-15 13:00S 34°24' W 076°12'6 6.0 1017.9 17.117.0
2014-Apr-15 12:00S 34°30' W 076°12'2512.3 1017.5 16.216.1
2014-Apr-15 10:00S 34°54' W 076°06'1313.0 1017.4 16.116.0
2014-Apr-15 09:00S 35°06' W 076°00'1212.0 1017.4 15.215.1
2014-Apr-15 08:00S 35°18' W 076°00'1313.0 1017.3 15.615.5
2014-Apr-15 07:00S 35°30' W 075°54'1313.0 1017.8 15.515.4
2014-Apr-15 06:00S 35°42' W 075°48'1818.0 1018.0 14.114.0
2014-Apr-15 05:00S 36°00' W 075°48'1312.9 1018.2 14.314.2
2014-Apr-15 04:00S 36°12' W 075°42'1212.0 1018.8 13.913.8
2014-Apr-15 03:00S 36°24' W 075°42'1918.6 1018.8 13.213.1
2014-Apr-15 02:00S 36°42' W 075°36'2412.2 1018.8 13.313.2
2014-Apr-15 00:00S 37°06' W 075°30'2412.2 1018.8 13.913.8
2014-Apr-14 22:00S 37°30' W 075°24'1312.9 1018.2 13.513.4
2014-Apr-14 21:00S 37°42' W 075°18'18 9.0 1018.4 13.313.2
2014-Apr-14 19:00S 38°00' W 075°18'8 7.6 1018.5 13.513.4
2014-Apr-14 18:00S 38°06' W 075°12'1212.0 1019.1 13.413.3
2014-Apr-14 17:00S 38°18' W 075°12'6 6.0 1019.8 13.713.7
2014-Apr-14 16:00S 38°24' W 075°12'8 7.6 1020.3 13.813.7
2014-Apr-14 15:00S 38°30' W 075°06'19 9.3 1020.8 13.813.7
2014-Apr-14 13:00S 38°48' W 075°00'1212.0 1020.6 13.613.5
2014-Apr-14 12:00S 39°00' W 075°00'1312.9 1020.2 13.513.4
2014-Apr-14 11:00S 39°12' W 074°54'1212.0 1020.3 13.613.5
2014-Apr-14 10:00S 39°24' W 074°54'1312.9 1020.3 13.613.5
2014-Apr-14 09:00S 39°36' W 074°48'1212.0 1020.2 13.713.6
2014-Apr-14 08:00S 39°48' W 074°48'19 9.3 1020.3 13.313.2
2014-Apr-14 06:00S 40°06' W 074°42'1312.8 1021.1 13.513.4
2014-Apr-14 05:00S 40°18' W 074°36'1212.0 1021.2 13.313.2
2014-Apr-14 04:00S 40°30' W 074°36'1312.8 1021.9 13.012.9
2014-Apr-14 03:00S 40°42' W 074°30'6 6.0 1021.5 13.213.1
2014-Apr-14 02:00S 40°48' W 074°30'1312.8 1021.5 13.113.0
2014-Apr-14 01:00S 41°00' W 074°24'1212.0 1021.5 13.213.1
2014-Apr-14 00:00S 41°12' W 074°24'1312.8 1021.5 12.912.8
2014-Apr-13 23:00S 41°24' W 074°18'6 6.0 1020.7 12.312.2
2014-Apr-13 22:00S 41°30' W 074°18'1110.8 1020.4 12.112.0
2014-Apr-13 21:00S 41°36' W 074°06'7 7.5 1020.3 11.811.4
2014-Apr-13 20:00S 41°42' W 074°00'1110.8 1020.3 11.410.8
2014-Apr-13 19:00S 41°48' W 073°48'4 4.5 1021.2 10.110.0
2014-Apr-13 18:00S 41°48' W 073°54'0 0.0 1022.4 9.4 9.1
2014-Apr-13 17:00S 41°48' W 073°54'0 0.0 1023.2 9.0 8.3
2014-Apr-13 16:00S 41°48' W 073°54'0 0.0 1023.9 10.4 7.6
2014-Apr-13 15:00S 41°48' W 073°54'4 2.2 1024.1 10.1 7.3
2014-Apr-13 13:00S 41°48' W 073°48'   1024.1 9.6 8.2

Dump ship's entire track history

sailing weather and tide predictions

Ship Status Report: callsign AMOUK20